sensor_id;sensor_type;location;lat;lon;timestamp;P1;durP1;ratioP1;P2;durP2;ratioP2
49678;SDS011;35570;48.218;16.326;2024-01-07T00:01:48;5.95;;;4.53;;
49678;SDS011;35570;48.218;16.326;2024-01-07T00:04:17;6.45;;;4.53;;
49678;SDS011;35570;48.218;16.326;2024-01-07T00:06:43;6.40;;;3.90;;
49678;SDS011;35570;48.218;16.326;2024-01-07T00:09:10;5.60;;;4.30;;
49678;SDS011;35570;48.218;16.326;2024-01-07T00:11:37;6.30;;;4.50;;
49678;SDS011;35570;48.218;16.326;2024-01-07T00:14:03;6.00;;;4.07;;
49678;SDS011;35570;48.218;16.326;2024-01-07T00:16:29;5.65;;;3.90;;
49678;SDS011;35570;48.218;16.326;2024-01-07T00:18:55;4.90;;;3.28;;
49678;SDS011;35570;48.218;16.326;2024-01-07T00:21:21;4.57;;;3.63;;
49678;SDS011;35570;48.218;16.326;2024-01-07T00:23:46;4.82;;;3.05;;
49678;SDS011;35570;48.218;16.326;2024-01-07T00:26:12;4.70;;;3.60;;
49678;SDS011;35570;48.218;16.326;2024-01-07T00:28:38;5.30;;;3.60;;
49678;SDS011;35570;48.218;16.326;2024-01-07T00:31:03;5.60;;;3.78;;
49678;SDS011;35570;48.218;16.326;2024-01-07T00:33:30;5.35;;;3.50;;
49678;SDS011;35570;48.218;16.326;2024-01-07T00:35:56;5.20;;;3.45;;
49678;SDS011;35570;48.218;16.326;2024-01-07T00:38:22;5.00;;;3.50;;
49678;SDS011;35570;48.218;16.326;2024-01-07T00:40:48;4.38;;;3.20;;
49678;SDS011;35570;48.218;16.326;2024-01-07T00:43:13;5.75;;;3.47;;
49678;SDS011;35570;48.218;16.326;2024-01-07T00:45:39;5.05;;;3.40;;
49678;SDS011;35570;48.218;16.326;2024-01-07T00:48:05;6.38;;;3.63;;
49678;SDS011;35570;48.218;16.326;2024-01-07T00:50:31;5.38;;;3.53;;
49678;SDS011;35570;48.218;16.326;2024-01-07T00:52:56;4.80;;;3.42;;
49678;SDS011;35570;48.218;16.326;2024-01-07T00:55:22;6.25;;;3.63;;
49678;SDS011;35570;48.218;16.326;2024-01-07T00:57:48;4.72;;;3.55;;
49678;SDS011;35570;48.218;16.326;2024-01-07T01:00:14;4.47;;;3.20;;
49678;SDS011;35570;48.218;16.326;2024-01-07T01:02:40;4.80;;;3.60;;
49678;SDS011;35570;48.218;16.326;2024-01-07T01:05:06;3.90;;;3.00;;
49678;SDS011;35570;48.218;16.326;2024-01-07T01:07:32;5.95;;;3.35;;
49678;SDS011;35570;48.218;16.326;2024-01-07T01:09:58;4.70;;;3.55;;
49678;SDS011;35570;48.218;16.326;2024-01-07T01:12:23;4.88;;;3.40;;
49678;SDS011;35570;48.218;16.326;2024-01-07T01:14:49;4.53;;;3.40;;
49678;SDS011;35570;48.218;16.326;2024-01-07T01:17:15;5.22;;;3.75;;
49678;SDS011;35570;48.218;16.326;2024-01-07T01:19:41;4.68;;;3.20;;
49678;SDS011;35570;48.218;16.326;2024-01-07T01:22:06;4.95;;;3.38;;
49678;SDS011;35570;48.218;16.326;2024-01-07T01:24:32;5.07;;;3.50;;
49678;SDS011;35570;48.218;16.326;2024-01-07T01:26:58;5.18;;;3.28;;
49678;SDS011;35570;48.218;16.326;2024-01-07T01:29:23;4.65;;;3.47;;
49678;SDS011;35570;48.218;16.326;2024-01-07T01:31:49;5.25;;;3.35;;
49678;SDS011;35570;48.218;16.326;2024-01-07T01:34:14;5.85;;;3.22;;
49678;SDS011;35570;48.218;16.326;2024-01-07T01:36:40;4.53;;;3.20;;
49678;SDS011;35570;48.218;16.326;2024-01-07T01:39:06;5.25;;;3.40;;
49678;SDS011;35570;48.218;16.326;2024-01-07T01:41:32;3.42;;;2.80;;
49678;SDS011;35570;48.218;16.326;2024-01-07T01:43:59;7.15;;;3.28;;
49678;SDS011;35570;48.218;16.326;2024-01-07T01:46:25;4.45;;;3.33;;
49678;SDS011;35570;48.218;16.326;2024-01-07T01:48:51;4.07;;;3.08;;
49678;SDS011;35570;48.218;16.326;2024-01-07T01:51:17;4.88;;;3.22;;
49678;SDS011;35570;48.218;16.326;2024-01-07T01:53:44;5.78;;;3.05;;
49678;SDS011;35570;48.218;16.326;2024-01-07T01:56:10;5.32;;;4.05;;
49678;SDS011;35570;48.218;16.326;2024-01-07T01:58:36;4.22;;;3.30;;
49678;SDS011;35570;48.218;16.326;2024-01-07T02:01:03;5.50;;;3.58;;
49678;SDS011;35570;48.218;16.326;2024-01-07T02:03:29;4.13;;;3.30;;
49678;SDS011;35570;48.218;16.326;2024-01-07T02:05:54;4.35;;;3.40;;
49678;SDS011;35570;48.218;16.326;2024-01-07T02:08:22;6.13;;;3.83;;
49678;SDS011;35570;48.218;16.326;2024-01-07T02:10:48;4.32;;;3.35;;
49678;SDS011;35570;48.218;16.326;2024-01-07T02:13:14;6.20;;;4.05;;
49678;SDS011;35570;48.218;16.326;2024-01-07T02:15:39;4.05;;;3.65;;
49678;SDS011;35570;48.218;16.326;2024-01-07T02:18:05;4.40;;;3.28;;
49678;SDS011;35570;48.218;16.326;2024-01-07T02:20:30;6.28;;;3.97;;
49678;SDS011;35570;48.218;16.326;2024-01-07T02:22:56;5.45;;;3.80;;
49678;SDS011;35570;48.218;16.326;2024-01-07T02:25:24;6.68;;;4.38;;
49678;SDS011;35570;48.218;16.326;2024-01-07T02:27:50;5.35;;;4.05;;
49678;SDS011;35570;48.218;16.326;2024-01-07T02:30:16;4.78;;;3.72;;
49678;SDS011;35570;48.218;16.326;2024-01-07T02:32:42;5.80;;;4.05;;
49678;SDS011;35570;48.218;16.326;2024-01-07T02:35:08;4.78;;;3.80;;
49678;SDS011;35570;48.218;16.326;2024-01-07T02:37:34;6.18;;;4.15;;
49678;SDS011;35570;48.218;16.326;2024-01-07T02:39:59;5.75;;;3.90;;
49678;SDS011;35570;48.218;16.326;2024-01-07T02:42:25;5.25;;;4.07;;
49678;SDS011;35570;48.218;16.326;2024-01-07T02:44:51;5.40;;;3.78;;
49678;SDS011;35570;48.218;16.326;2024-01-07T02:47:16;5.32;;;4.10;;
49678;SDS011;35570;48.218;16.326;2024-01-07T02:49:42;6.10;;;4.60;;
49678;SDS011;35570;48.218;16.326;2024-01-07T02:52:07;5.38;;;4.05;;
49678;SDS011;35570;48.218;16.326;2024-01-07T02:54:33;5.22;;;4.10;;
49678;SDS011;35570;48.218;16.326;2024-01-07T02:56:58;5.70;;;4.80;;
49678;SDS011;35570;48.218;16.326;2024-01-07T02:59:24;6.95;;;4.70;;
49678;SDS011;35570;48.218;16.326;2024-01-07T03:01:49;6.05;;;4.07;;
49678;SDS011;35570;48.218;16.326;2024-01-07T03:04:15;5.25;;;3.97;;
49678;SDS011;35570;48.218;16.326;2024-01-07T03:06:41;5.28;;;4.07;;
49678;SDS011;35570;48.218;16.326;2024-01-07T03:09:07;5.72;;;4.20;;
49678;SDS011;35570;48.218;16.326;2024-01-07T03:11:38;5.55;;;3.90;;
49678;SDS011;35570;48.218;16.326;2024-01-07T03:14:05;6.05;;;4.28;;
49678;SDS011;35570;48.218;16.326;2024-01-07T03:16:31;6.18;;;4.68;;
49678;SDS011;35570;48.218;16.326;2024-01-07T03:18:57;6.65;;;4.32;;
49678;SDS011;35570;48.218;16.326;2024-01-07T03:21:23;6.03;;;3.88;;
49678;SDS011;35570;48.218;16.326;2024-01-07T03:23:49;5.82;;;4.50;;
49678;SDS011;35570;48.218;16.326;2024-01-07T03:26:16;6.70;;;4.50;;
49678;SDS011;35570;48.218;16.326;2024-01-07T03:28:43;5.50;;;4.22;;
49678;SDS011;35570;48.218;16.326;2024-01-07T03:31:10;5.72;;;4.18;;
49678;SDS011;35570;48.218;16.326;2024-01-07T03:33:38;6.03;;;4.22;;
49678;SDS011;35570;48.218;16.326;2024-01-07T03:36:08;5.38;;;4.30;;
49678;SDS011;35570;48.218;16.326;2024-01-07T03:38:35;6.70;;;4.75;;
49678;SDS011;35570;48.218;16.326;2024-01-07T03:41:01;6.72;;;4.78;;
49678;SDS011;35570;48.218;16.326;2024-01-07T03:43:27;6.00;;;5.35;;
49678;SDS011;35570;48.218;16.326;2024-01-07T03:45:53;7.90;;;5.53;;
49678;SDS011;35570;48.218;16.326;2024-01-07T03:48:18;7.75;;;5.65;;
49678;SDS011;35570;48.218;16.326;2024-01-07T03:50:44;7.13;;;5.82;;
49678;SDS011;35570;48.218;16.326;2024-01-07T03:53:10;8.80;;;6.40;;
49678;SDS011;35570;48.218;16.326;2024-01-07T03:55:36;8.00;;;5.68;;
49678;SDS011;35570;48.218;16.326;2024-01-07T03:58:01;7.30;;;5.57;;
49678;SDS011;35570;48.218;16.326;2024-01-07T04:00:28;7.00;;;4.90;;
49678;SDS011;35570;48.218;16.326;2024-01-07T04:02:53;6.78;;;5.35;;
49678;SDS011;35570;48.218;16.326;2024-01-07T04:05:19;7.28;;;5.30;;
49678;SDS011;35570;48.218;16.326;2024-01-07T04:07:44;7.18;;;4.93;;
49678;SDS011;35570;48.218;16.326;2024-01-07T04:10:10;6.82;;;5.35;;
49678;SDS011;35570;48.218;16.326;2024-01-07T04:12:36;7.55;;;5.18;;
49678;SDS011;35570;48.218;16.326;2024-01-07T04:15:02;6.93;;;5.43;;
49678;SDS011;35570;48.218;16.326;2024-01-07T04:17:28;6.60;;;4.90;;
49678;SDS011;35570;48.218;16.326;2024-01-07T04:19:54;7.80;;;5.68;;
49678;SDS011;35570;48.218;16.326;2024-01-07T04:22:20;7.32;;;5.45;;
49678;SDS011;35570;48.218;16.326;2024-01-07T04:24:46;9.63;;;5.90;;
49678;SDS011;35570;48.218;16.326;2024-01-07T04:27:11;7.07;;;5.70;;
49678;SDS011;35570;48.218;16.326;2024-01-07T04:29:37;7.93;;;5.70;;
49678;SDS011;35570;48.218;16.326;2024-01-07T04:32:03;8.80;;;5.82;;
49678;SDS011;35570;48.218;16.326;2024-01-07T04:34:28;6.72;;;5.88;;
49678;SDS011;35570;48.218;16.326;2024-01-07T04:36:54;7.22;;;5.97;;
49678;SDS011;35570;48.218;16.326;2024-01-07T04:39:20;8.35;;;5.63;;
49678;SDS011;35570;48.218;16.326;2024-01-07T04:41:45;6.85;;;5.20;;
49678;SDS011;35570;48.218;16.326;2024-01-07T04:44:11;6.60;;;5.20;;
49678;SDS011;35570;48.218;16.326;2024-01-07T04:46:39;7.47;;;5.40;;
49678;SDS011;35570;48.218;16.326;2024-01-07T04:49:05;6.80;;;5.47;;
49678;SDS011;35570;48.218;16.326;2024-01-07T04:51:31;7.38;;;5.80;;
49678;SDS011;35570;48.218;16.326;2024-01-07T04:53:57;7.30;;;5.60;;
49678;SDS011;35570;48.218;16.326;2024-01-07T04:56:23;8.48;;;6.10;;
49678;SDS011;35570;48.218;16.326;2024-01-07T04:58:49;7.93;;;5.57;;
49678;SDS011;35570;48.218;16.326;2024-01-07T05:01:14;7.60;;;5.68;;
49678;SDS011;35570;48.218;16.326;2024-01-07T05:03:40;7.20;;;5.45;;
49678;SDS011;35570;48.218;16.326;2024-01-07T05:06:08;7.38;;;5.90;;
49678;SDS011;35570;48.218;16.326;2024-01-07T05:08:36;7.95;;;5.82;;
49678;SDS011;35570;48.218;16.326;2024-01-07T05:11:03;8.30;;;6.20;;
49678;SDS011;35570;48.218;16.326;2024-01-07T05:13:28;7.70;;;6.00;;
49678;SDS011;35570;48.218;16.326;2024-01-07T05:15:55;8.25;;;5.88;;
49678;SDS011;35570;48.218;16.326;2024-01-07T05:18:21;8.45;;;6.03;;
49678;SDS011;35570;48.218;16.326;2024-01-07T05:20:47;7.47;;;5.90;;
49678;SDS011;35570;48.218;16.326;2024-01-07T05:23:13;7.50;;;6.00;;
49678;SDS011;35570;48.218;16.326;2024-01-07T05:25:39;7.55;;;6.03;;
49678;SDS011;35570;48.218;16.326;2024-01-07T05:28:04;7.68;;;5.90;;
49678;SDS011;35570;48.218;16.326;2024-01-07T05:30:31;8.77;;;5.95;;
49678;SDS011;35570;48.218;16.326;2024-01-07T05:32:57;6.88;;;5.75;;
49678;SDS011;35570;48.218;16.326;2024-01-07T05:35:22;7.43;;;5.35;;
49678;SDS011;35570;48.218;16.326;2024-01-07T05:37:48;7.80;;;6.03;;
49678;SDS011;35570;48.218;16.326;2024-01-07T05:40:13;8.38;;;6.13;;
49678;SDS011;35570;48.218;16.326;2024-01-07T05:42:39;6.80;;;5.90;;
49678;SDS011;35570;48.218;16.326;2024-01-07T05:45:05;8.40;;;6.53;;
49678;SDS011;35570;48.218;16.326;2024-01-07T05:47:31;7.20;;;6.10;;
49678;SDS011;35570;48.218;16.326;2024-01-07T05:49:56;6.90;;;5.20;;
49678;SDS011;35570;48.218;16.326;2024-01-07T05:52:22;7.78;;;6.07;;
49678;SDS011;35570;48.218;16.326;2024-01-07T05:54:48;7.72;;;5.85;;
49678;SDS011;35570;48.218;16.326;2024-01-07T05:57:13;7.22;;;5.45;;
49678;SDS011;35570;48.218;16.326;2024-01-07T05:59:39;7.88;;;5.43;;
49678;SDS011;35570;48.218;16.326;2024-01-07T06:02:04;6.75;;;4.97;;
49678;SDS011;35570;48.218;16.326;2024-01-07T06:04:30;8.00;;;5.57;;
49678;SDS011;35570;48.218;16.326;2024-01-07T06:06:56;7.35;;;5.63;;
49678;SDS011;35570;48.218;16.326;2024-01-07T06:09:21;9.68;;;6.55;;
49678;SDS011;35570;48.218;16.326;2024-01-07T06:11:47;7.45;;;5.35;;
49678;SDS011;35570;48.218;16.326;2024-01-07T06:14:13;7.72;;;6.00;;
49678;SDS011;35570;48.218;16.326;2024-01-07T06:16:38;7.53;;;5.55;;
49678;SDS011;35570;48.218;16.326;2024-01-07T06:19:04;8.30;;;5.32;;
49678;SDS011;35570;48.218;16.326;2024-01-07T06:21:30;7.78;;;5.68;;
49678;SDS011;35570;48.218;16.326;2024-01-07T06:23:55;8.93;;;5.90;;
49678;SDS011;35570;48.218;16.326;2024-01-07T06:26:21;8.00;;;5.55;;
49678;SDS011;35570;48.218;16.326;2024-01-07T06:28:46;6.78;;;5.18;;
49678;SDS011;35570;48.218;16.326;2024-01-07T06:31:12;8.00;;;5.55;;
49678;SDS011;35570;48.218;16.326;2024-01-07T06:33:37;6.93;;;5.15;;
49678;SDS011;35570;48.218;16.326;2024-01-07T06:36:03;7.75;;;5.15;;
49678;SDS011;35570;48.218;16.326;2024-01-07T06:38:29;7.05;;;5.53;;
49678;SDS011;35570;48.218;16.326;2024-01-07T06:40:55;7.15;;;5.47;;
49678;SDS011;35570;48.218;16.326;2024-01-07T06:43:24;8.20;;;5.80;;
49678;SDS011;35570;48.218;16.326;2024-01-07T06:45:50;7.00;;;5.43;;
49678;SDS011;35570;48.218;16.326;2024-01-07T06:48:15;7.22;;;5.80;;
49678;SDS011;35570;48.218;16.326;2024-01-07T06:50:41;7.43;;;5.57;;
49678;SDS011;35570;48.218;16.326;2024-01-07T06:53:06;7.45;;;5.22;;
49678;SDS011;35570;48.218;16.326;2024-01-07T06:55:32;7.00;;;5.03;;
49678;SDS011;35570;48.218;16.326;2024-01-07T06:57:57;8.02;;;5.97;;
49678;SDS011;35570;48.218;16.326;2024-01-07T07:00:23;8.38;;;5.60;;
49678;SDS011;35570;48.218;16.326;2024-01-07T07:02:49;7.07;;;5.55;;
49678;SDS011;35570;48.218;16.326;2024-01-07T07:05:15;8.02;;;6.05;;
49678;SDS011;35570;48.218;16.326;2024-01-07T07:07:40;7.57;;;5.72;;
49678;SDS011;35570;48.218;16.326;2024-01-07T07:10:06;6.20;;;5.15;;
49678;SDS011;35570;48.218;16.326;2024-01-07T07:12:32;8.13;;;5.80;;
49678;SDS011;35570;48.218;16.326;2024-01-07T07:14:57;7.30;;;5.57;;
49678;SDS011;35570;48.218;16.326;2024-01-07T07:17:23;7.80;;;5.50;;
49678;SDS011;35570;48.218;16.326;2024-01-07T07:19:49;9.52;;;5.80;;
49678;SDS011;35570;48.218;16.326;2024-01-07T07:22:14;9.60;;;6.35;;
49678;SDS011;35570;48.218;16.326;2024-01-07T07:24:40;7.75;;;5.38;;
49678;SDS011;35570;48.218;16.326;2024-01-07T07:27:06;7.75;;;5.75;;
49678;SDS011;35570;48.218;16.326;2024-01-07T07:29:32;8.07;;;5.57;;
49678;SDS011;35570;48.218;16.326;2024-01-07T07:31:58;9.05;;;6.00;;
49678;SDS011;35570;48.218;16.326;2024-01-07T07:34:24;8.30;;;5.72;;
49678;SDS011;35570;48.218;16.326;2024-01-07T07:36:49;8.27;;;5.90;;
49678;SDS011;35570;48.218;16.326;2024-01-07T07:39:15;7.20;;;5.55;;
49678;SDS011;35570;48.218;16.326;2024-01-07T07:41:40;7.15;;;5.15;;
49678;SDS011;35570;48.218;16.326;2024-01-07T07:44:06;7.05;;;5.20;;
49678;SDS011;35570;48.218;16.326;2024-01-07T07:46:32;8.05;;;6.10;;
49678;SDS011;35570;48.218;16.326;2024-01-07T07:48:57;7.45;;;5.30;;
49678;SDS011;35570;48.218;16.326;2024-01-07T07:51:23;5.65;;;4.65;;
49678;SDS011;35570;48.218;16.326;2024-01-07T07:53:49;7.07;;;4.85;;
49678;SDS011;35570;48.218;16.326;2024-01-07T07:56:14;6.65;;;4.93;;
49678;SDS011;35570;48.218;16.326;2024-01-07T07:58:40;7.28;;;5.50;;
49678;SDS011;35570;48.218;16.326;2024-01-07T08:01:05;7.00;;;5.28;;
49678;SDS011;35570;48.218;16.326;2024-01-07T08:03:31;7.72;;;5.28;;
49678;SDS011;35570;48.218;16.326;2024-01-07T08:05:57;6.75;;;5.25;;
49678;SDS011;35570;48.218;16.326;2024-01-07T08:08:23;8.25;;;5.20;;
49678;SDS011;35570;48.218;16.326;2024-01-07T08:10:48;8.88;;;5.30;;
49678;SDS011;35570;48.218;16.326;2024-01-07T08:13:14;8.75;;;5.65;;
49678;SDS011;35570;48.218;16.326;2024-01-07T08:15:40;8.82;;;5.57;;
49678;SDS011;35570;48.218;16.326;2024-01-07T08:18:06;8.40;;;5.95;;
49678;SDS011;35570;48.218;16.326;2024-01-07T08:20:31;8.32;;;6.03;;
49678;SDS011;35570;48.218;16.326;2024-01-07T08:22:57;11.00;;;6.95;;
49678;SDS011;35570;48.218;16.326;2024-01-07T08:25:23;9.38;;;6.22;;
49678;SDS011;35570;48.218;16.326;2024-01-07T08:27:48;8.98;;;6.68;;
49678;SDS011;35570;48.218;16.326;2024-01-07T08:30:14;8.55;;;6.35;;
49678;SDS011;35570;48.218;16.326;2024-01-07T08:32:40;9.75;;;6.38;;
49678;SDS011;35570;48.218;16.326;2024-01-07T08:35:06;8.15;;;5.70;;
49678;SDS011;35570;48.218;16.326;2024-01-07T08:37:32;8.43;;;5.22;;
49678;SDS011;35570;48.218;16.326;2024-01-07T08:39:58;7.63;;;5.45;;
49678;SDS011;35570;48.218;16.326;2024-01-07T08:42:24;7.57;;;4.90;;
49678;SDS011;35570;48.218;16.326;2024-01-07T08:44:50;7.43;;;4.90;;
49678;SDS011;35570;48.218;16.326;2024-01-07T08:47:15;11.23;;;6.05;;
49678;SDS011;35570;48.218;16.326;2024-01-07T08:49:41;8.98;;;5.47;;
49678;SDS011;35570;48.218;16.326;2024-01-07T08:52:07;6.72;;;4.75;;
49678;SDS011;35570;48.218;16.326;2024-01-07T08:54:32;7.43;;;5.30;;
49678;SDS011;35570;48.218;16.326;2024-01-07T08:56:58;7.95;;;5.10;;
49678;SDS011;35570;48.218;16.326;2024-01-07T08:59:24;7.25;;;4.90;;
49678;SDS011;35570;48.218;16.326;2024-01-07T09:01:49;8.82;;;5.72;;
49678;SDS011;35570;48.218;16.326;2024-01-07T09:04:15;10.48;;;6.72;;
49678;SDS011;35570;48.218;16.326;2024-01-07T09:06:42;12.10;;;6.93;;
49678;SDS011;35570;48.218;16.326;2024-01-07T09:09:11;8.50;;;5.47;;
49678;SDS011;35570;48.218;16.326;2024-01-07T09:11:36;9.30;;;6.40;;
49678;SDS011;35570;48.218;16.326;2024-01-07T09:14:02;9.63;;;6.25;;
49678;SDS011;35570;48.218;16.326;2024-01-07T09:16:30;8.65;;;6.10;;
49678;SDS011;35570;48.218;16.326;2024-01-07T09:18:56;8.40;;;6.03;;
49678;SDS011;35570;48.218;16.326;2024-01-07T09:21:22;8.25;;;5.78;;
49678;SDS011;35570;48.218;16.326;2024-01-07T09:23:50;8.18;;;5.70;;
49678;SDS011;35570;48.218;16.326;2024-01-07T09:26:16;7.82;;;5.75;;
49678;SDS011;35570;48.218;16.326;2024-01-07T09:28:41;9.20;;;6.60;;
49678;SDS011;35570;48.218;16.326;2024-01-07T09:31:08;8.77;;;5.82;;
49678;SDS011;35570;48.218;16.326;2024-01-07T09:33:33;7.43;;;5.80;;
49678;SDS011;35570;48.218;16.326;2024-01-07T09:35:59;10.40;;;6.25;;
49678;SDS011;35570;48.218;16.326;2024-01-07T09:38:25;9.82;;;6.22;;
49678;SDS011;35570;48.218;16.326;2024-01-07T09:40:51;9.25;;;6.05;;
49678;SDS011;35570;48.218;16.326;2024-01-07T09:43:18;9.07;;;6.13;;
49678;SDS011;35570;48.218;16.326;2024-01-07T09:45:45;8.18;;;6.18;;
49678;SDS011;35570;48.218;16.326;2024-01-07T09:48:15;9.13;;;6.63;;
49678;SDS011;35570;48.218;16.326;2024-01-07T09:50:41;7.95;;;5.78;;
49678;SDS011;35570;48.218;16.326;2024-01-07T09:53:07;8.73;;;5.90;;
49678;SDS011;35570;48.218;16.326;2024-01-07T09:55:48;6.80;;;5.30;;
49678;SDS011;35570;48.218;16.326;2024-01-07T09:58:43;7.82;;;5.50;;
49678;SDS011;35570;48.218;16.326;2024-01-07T10:01:10;7.80;;;5.35;;
49678;SDS011;35570;48.218;16.326;2024-01-07T10:03:36;9.45;;;6.00;;
49678;SDS011;35570;48.218;16.326;2024-01-07T10:06:02;8.38;;;5.35;;
49678;SDS011;35570;48.218;16.326;2024-01-07T10:08:28;8.48;;;5.63;;
49678;SDS011;35570;48.218;16.326;2024-01-07T10:10:54;8.57;;;5.82;;
49678;SDS011;35570;48.218;16.326;2024-01-07T10:13:20;9.07;;;5.43;;
49678;SDS011;35570;48.218;16.326;2024-01-07T10:15:47;7.38;;;5.57;;
49678;SDS011;35570;48.218;16.326;2024-01-07T10:18:13;9.02;;;5.60;;
49678;SDS011;35570;48.218;16.326;2024-01-07T10:20:39;8.10;;;5.65;;
49678;SDS011;35570;48.218;16.326;2024-01-07T10:23:05;8.55;;;5.63;;
49678;SDS011;35570;48.218;16.326;2024-01-07T10:25:33;8.95;;;6.20;;
49678;SDS011;35570;48.218;16.326;2024-01-07T10:28:00;8.00;;;5.65;;
49678;SDS011;35570;48.218;16.326;2024-01-07T10:30:27;8.60;;;5.70;;
49678;SDS011;35570;48.218;16.326;2024-01-07T10:32:59;8.55;;;5.32;;
49678;SDS011;35570;48.218;16.326;2024-01-07T10:35:35;7.47;;;5.25;;
49678;SDS011;35570;48.218;16.326;2024-01-07T10:38:08;8.88;;;5.47;;
49678;SDS011;35570;48.218;16.326;2024-01-07T10:40:34;8.73;;;5.95;;
49678;SDS011;35570;48.218;16.326;2024-01-07T10:42:59;9.05;;;5.85;;
49678;SDS011;35570;48.218;16.326;2024-01-07T10:45:25;7.60;;;5.35;;
49678;SDS011;35570;48.218;16.326;2024-01-07T10:47:51;10.07;;;5.05;;
49678;SDS011;35570;48.218;16.326;2024-01-07T10:50:21;8.15;;;5.38;;
49678;SDS011;35570;48.218;16.326;2024-01-07T10:52:50;7.78;;;5.22;;
49678;SDS011;35570;48.218;16.326;2024-01-07T10:55:22;8.98;;;5.90;;
49678;SDS011;35570;48.218;16.326;2024-01-07T10:57:51;9.77;;;6.00;;
49678;SDS011;35570;48.218;16.326;2024-01-07T11:00:19;10.77;;;7.07;;
49678;SDS011;35570;48.218;16.326;2024-01-07T11:02:53;9.70;;;6.80;;
49678;SDS011;35570;48.218;16.326;2024-01-07T11:05:31;10.43;;;6.00;;
49678;SDS011;35570;48.218;16.326;2024-01-07T11:10:43;7.97;;;5.90;;
49678;SDS011;35570;48.218;16.326;2024-01-07T11:13:31;11.80;;;6.30;;
49678;SDS011;35570;48.218;16.326;2024-01-07T11:16:07;9.75;;;6.07;;
49678;SDS011;35570;48.218;16.326;2024-01-07T11:18:40;8.88;;;6.03;;
49678;SDS011;35570;48.218;16.326;2024-01-07T11:21:11;8.73;;;6.07;;
49678;SDS011;35570;48.218;16.326;2024-01-07T11:23:49;9.73;;;6.00;;
49678;SDS011;35570;48.218;16.326;2024-01-07T11:26:17;9.55;;;5.97;;
49678;SDS011;35570;48.218;16.326;2024-01-07T11:34:41;10.02;;;6.00;;
49678;SDS011;35570;48.218;16.326;2024-01-07T11:37:16;9.98;;;6.30;;
49678;SDS011;35570;48.218;16.326;2024-01-07T11:39:43;9.43;;;6.28;;
49678;SDS011;35570;48.218;16.326;2024-01-07T11:42:13;9.20;;;6.00;;
49678;SDS011;35570;48.218;16.326;2024-01-07T11:44:48;8.65;;;6.32;;
49678;SDS011;35570;48.218;16.326;2024-01-07T11:47:16;9.00;;;5.95;;
49678;SDS011;35570;48.218;16.326;2024-01-07T11:49:42;10.23;;;6.03;;
49678;SDS011;35570;48.218;16.326;2024-01-07T11:52:08;12.13;;;6.93;;
49678;SDS011;35570;48.218;16.326;2024-01-07T11:54:35;8.70;;;5.70;;
49678;SDS011;35570;48.218;16.326;2024-01-07T11:57:05;9.88;;;6.38;;
49678;SDS011;35570;48.218;16.326;2024-01-07T11:59:31;9.38;;;6.63;;
49678;SDS011;35570;48.218;16.326;2024-01-07T12:01:59;10.40;;;6.82;;
49678;SDS011;35570;48.218;16.326;2024-01-07T12:04:25;9.63;;;6.63;;
49678;SDS011;35570;48.218;16.326;2024-01-07T12:06:57;9.27;;;6.53;;
49678;SDS011;35570;48.218;16.326;2024-01-07T12:09:40;9.43;;;6.07;;
49678;SDS011;35570;48.218;16.326;2024-01-07T12:12:05;11.95;;;7.25;;
49678;SDS011;35570;48.218;16.326;2024-01-07T12:14:31;9.75;;;7.07;;
49678;SDS011;35570;48.218;16.326;2024-01-07T12:17:05;10.27;;;6.10;;
49678;SDS011;35570;48.218;16.326;2024-01-07T12:19:33;8.65;;;5.72;;
49678;SDS011;35570;48.218;16.326;2024-01-07T12:22:08;8.43;;;6.20;;
49678;SDS011;35570;48.218;16.326;2024-01-07T12:24:33;9.57;;;6.32;;
49678;SDS011;35570;48.218;16.326;2024-01-07T12:27:06;9.45;;;6.38;;
49678;SDS011;35570;48.218;16.326;2024-01-07T12:29:32;11.38;;;6.57;;
49678;SDS011;35570;48.218;16.326;2024-01-07T12:31:57;10.25;;;6.57;;
49678;SDS011;35570;48.218;16.326;2024-01-07T12:34:25;9.05;;;6.40;;
49678;SDS011;35570;48.218;16.326;2024-01-07T12:36:50;10.27;;;7.13;;
49678;SDS011;35570;48.218;16.326;2024-01-07T12:39:20;10.35;;;6.75;;
49678;SDS011;35570;48.218;16.326;2024-01-07T12:41:45;13.48;;;7.75;;
49678;SDS011;35570;48.218;16.326;2024-01-07T12:44:12;10.88;;;7.22;;
49678;SDS011;35570;48.218;16.326;2024-01-07T12:46:37;10.60;;;6.88;;
49678;SDS011;35570;48.218;16.326;2024-01-07T12:49:03;10.48;;;7.32;;
49678;SDS011;35570;48.218;16.326;2024-01-07T12:51:29;9.75;;;7.30;;
49678;SDS011;35570;48.218;16.326;2024-01-07T12:53:55;12.05;;;8.35;;
49678;SDS011;35570;48.218;16.326;2024-01-07T12:56:21;9.57;;;7.75;;
49678;SDS011;35570;48.218;16.326;2024-01-07T12:58:47;12.93;;;8.23;;
49678;SDS011;35570;48.218;16.326;2024-01-07T13:01:12;12.68;;;8.18;;
49678;SDS011;35570;48.218;16.326;2024-01-07T13:03:39;12.25;;;8.48;;
49678;SDS011;35570;48.218;16.326;2024-01-07T13:06:05;11.98;;;7.70;;
49678;SDS011;35570;48.218;16.326;2024-01-07T13:08:31;12.95;;;7.97;;
49678;SDS011;35570;48.218;16.326;2024-01-07T13:10:58;12.38;;;7.72;;
49678;SDS011;35570;48.218;16.326;2024-01-07T13:13:25;10.05;;;7.20;;
49678;SDS011;35570;48.218;16.326;2024-01-07T13:15:51;11.38;;;7.53;;
49678;SDS011;35570;48.218;16.326;2024-01-07T13:18:16;9.73;;;7.15;;
49678;SDS011;35570;48.218;16.326;2024-01-07T13:20:43;10.48;;;7.38;;
49678;SDS011;35570;48.218;16.326;2024-01-07T13:23:08;10.60;;;7.60;;
49678;SDS011;35570;48.218;16.326;2024-01-07T13:25:34;10.27;;;6.90;;
49678;SDS011;35570;48.218;16.326;2024-01-07T13:27:59;10.52;;;7.50;;
49678;SDS011;35570;48.218;16.326;2024-01-07T13:30:25;12.95;;;7.63;;
49678;SDS011;35570;48.218;16.326;2024-01-07T13:32:51;12.23;;;7.60;;
49678;SDS011;35570;48.218;16.326;2024-01-07T13:35:21;10.85;;;7.63;;
49678;SDS011;35570;48.218;16.326;2024-01-07T13:37:47;10.18;;;7.30;;
49678;SDS011;35570;48.218;16.326;2024-01-07T13:40:12;11.35;;;8.25;;
49678;SDS011;35570;48.218;16.326;2024-01-07T13:42:39;10.43;;;7.68;;
49678;SDS011;35570;48.218;16.326;2024-01-07T13:45:06;9.95;;;7.57;;
49678;SDS011;35570;48.218;16.326;2024-01-07T13:47:32;10.13;;;7.60;;
49678;SDS011;35570;48.218;16.326;2024-01-07T13:49:57;12.07;;;7.38;;
49678;SDS011;35570;48.218;16.326;2024-01-07T13:52:24;13.73;;;7.95;;
49678;SDS011;35570;48.218;16.326;2024-01-07T13:54:50;16.90;;;8.93;;
49678;SDS011;35570;48.218;16.326;2024-01-07T13:57:15;12.32;;;8.15;;
49678;SDS011;35570;48.218;16.326;2024-01-07T13:59:41;11.25;;;7.20;;
49678;SDS011;35570;48.218;16.326;2024-01-07T14:02:07;11.23;;;7.82;;
49678;SDS011;35570;48.218;16.326;2024-01-07T14:04:34;10.45;;;7.45;;
49678;SDS011;35570;48.218;16.326;2024-01-07T14:07:00;9.13;;;6.53;;
49678;SDS011;35570;48.218;16.326;2024-01-07T14:09:25;10.30;;;7.55;;
49678;SDS011;35570;48.218;16.326;2024-01-07T14:11:51;11.40;;;7.68;;
49678;SDS011;35570;48.218;16.326;2024-01-07T14:14:17;11.75;;;7.15;;
49678;SDS011;35570;48.218;16.326;2024-01-07T14:16:46;9.40;;;6.72;;
49678;SDS011;35570;48.218;16.326;2024-01-07T14:19:11;12.68;;;7.45;;
49678;SDS011;35570;48.218;16.326;2024-01-07T14:21:45;11.32;;;7.57;;
49678;SDS011;35570;48.218;16.326;2024-01-07T14:24:12;10.73;;;7.95;;
49678;SDS011;35570;48.218;16.326;2024-01-07T14:26:38;11.60;;;7.85;;
49678;SDS011;35570;48.218;16.326;2024-01-07T14:29:04;11.65;;;7.55;;
49678;SDS011;35570;48.218;16.326;2024-01-07T14:31:30;10.60;;;7.72;;
49678;SDS011;35570;48.218;16.326;2024-01-07T14:34:00;10.48;;;7.20;;
49678;SDS011;35570;48.218;16.326;2024-01-07T14:36:25;11.07;;;7.20;;
49678;SDS011;35570;48.218;16.326;2024-01-07T14:38:51;13.43;;;8.43;;